aerodrome LA FERTE GAUCHER, LFFG, pilots, aviation, flying | pilotspace.eu

LA FERTE GAUCHER

aerodrome LA FERTE GAUCHER

ICAO/ID: LFFG
France
web: Réservé au parachutisme et aux avions de servitude
show on the map

LFPM 050330Z AUTO 16009KT 9999 NSC 16/14 Q0996

TAF LFPG 042300Z 0500/0606 18010KT 9999 SCT045 PROB40 TEMPO 0501/0505 4000 -SHRA BKN015 SCT040TCU PROB30 TEMPO 0501/0505 3000 SHRA BKN015 SCT040TCU BECMG 0504/0506 22015KT TEMPO 0500/0516 VRB15G25KT PROB40 TEMPO 0508/0514 4000 -SHRA SCT015TCU TEMPO 0508/0513 24020G35KT TX18/0500Z TN09/0606Z

general information

altitude: 538 ft
latitude: 48 45 21 N
longitude: 003 16 36 E

traffic information

RWY: 05/23: 3,609 ft (1,100 m) — surface unknown
report copyright

Online pilot logbook: free for each registered member! http://www.pilotlogbook.eu


last flights

RECENTLY ADDED

mix

mix

22/04/2015 (3x)

northwolf

RWY vacated at Venezia

RWY vacated at Venezia ...

16/04/2015 (18x)

lukin

Palermo

Palermo

09/04/2015 (18x)

lukin

Lugano Swiss, Approach

Lugano Swiss, Approach ...

08/04/2015 (24x)

lukin

video 2014

05/04/2015 (5x)

Koma th

Job pictures

Job pictures

31/03/2015 (41x)

lukin

zimni VFR s OK-JOR

zimni VFR s OK-JOR

21/02/2015 (12x)

FilM

lítání je žrádlo, řekl kdysi můj kolega...

lítání je žrádlo, řekl k ...

01/02/2015 (65x)

Carlos K2